sensor_id;sensor_type;location;lat;lon;timestamp;temperature;humidity
5222;DHT22;2630;52.036;8.514;2022-07-29T00:01:42;17.00;99.90
5222;DHT22;2630;52.036;8.514;2022-07-29T00:04:08;17.00;99.90
5222;DHT22;2630;52.036;8.514;2022-07-29T00:09:00;16.90;99.90
5222;DHT22;2630;52.036;8.514;2022-07-29T00:11:25;16.90;99.90
5222;DHT22;2630;52.036;8.514;2022-07-29T00:13:51;16.90;99.90
5222;DHT22;2630;52.036;8.514;2022-07-29T00:16:17;16.90;99.90
5222;DHT22;2630;52.036;8.514;2022-07-29T00:18:42;16.90;99.90
5222;DHT22;2630;52.036;8.514;2022-07-29T00:23:34;16.90;99.90
5222;DHT22;2630;52.036;8.514;2022-07-29T00:25:59;16.80;99.90
5222;DHT22;2630;52.036;8.514;2022-07-29T00:28:25;16.80;99.90
5222;DHT22;2630;52.036;8.514;2022-07-29T00:30:50;16.80;99.90
5222;DHT22;2630;52.036;8.514;2022-07-29T00:33:16;16.70;99.90
5222;DHT22;2630;52.036;8.514;2022-07-29T00:35:41;16.80;99.90
5222;DHT22;2630;52.036;8.514;2022-07-29T00:38:12;16.70;99.90
5222;DHT22;2630;52.036;8.514;2022-07-29T00:43:04;16.80;99.90
5222;DHT22;2630;52.036;8.514;2022-07-29T00:45:30;16.80;99.90
5222;DHT22;2630;52.036;8.514;2022-07-29T00:47:56;16.80;99.90
5222;DHT22;2630;52.036;8.514;2022-07-29T00:50:23;16.80;99.90
5222;DHT22;2630;52.036;8.514;2022-07-29T00:57:43;16.80;99.90
5222;DHT22;2630;52.036;8.514;2022-07-29T01:00:12;16.80;99.90
5222;DHT22;2630;52.036;8.514;2022-07-29T01:02:39;16.70;99.90
5222;DHT22;2630;52.036;8.514;2022-07-29T01:05:05;16.50;99.90
5222;DHT22;2630;52.036;8.514;2022-07-29T01:07:33;16.50;99.90
5222;DHT22;2630;52.036;8.514;2022-07-29T01:10:00;16.60;99.90
5222;DHT22;2630;52.036;8.514;2022-07-29T01:12:27;16.60;99.90
5222;DHT22;2630;52.036;8.514;2022-07-29T01:14:54;16.60;99.90
5222;DHT22;2630;52.036;8.514;2022-07-29T01:17:26;16.50;99.90
5222;DHT22;2630;52.036;8.514;2022-07-29T01:30:24;16.40;99.90
5222;DHT22;2630;52.036;8.514;2022-07-29T01:32:56;16.40;99.90
5222;DHT22;2630;52.036;8.514;2022-07-29T01:35:26;16.30;99.90
5222;DHT22;2630;52.036;8.514;2022-07-29T01:38:35;16.20;99.90
5222;DHT22;2630;52.036;8.514;2022-07-29T01:41:02;16.20;99.90
5222;DHT22;2630;52.036;8.514;2022-07-29T01:43:40;16.20;99.90
5222;DHT22;2630;52.036;8.514;2022-07-29T01:46:10;16.10;99.90
5222;DHT22;2630;52.036;8.514;2022-07-29T01:48:47;16.10;99.90
5222;DHT22;2630;52.036;8.514;2022-07-29T01:51:24;16.00;99.90
5222;DHT22;2630;52.036;8.514;2022-07-29T01:56:59;16.00;99.90
5222;DHT22;2630;52.036;8.514;2022-07-29T01:59:26;16.00;99.90
5222;DHT22;2630;52.036;8.514;2022-07-29T02:01:54;16.10;99.90
5222;DHT22;2630;52.036;8.514;2022-07-29T02:04:20;16.20;99.90
5222;DHT22;2630;52.036;8.514;2022-07-29T02:09:14;16.20;99.90
5222;DHT22;2630;52.036;8.514;2022-07-29T02:11:48;16.20;99.90
5222;DHT22;2630;52.036;8.514;2022-07-29T02:14:16;16.20;99.90
5222;DHT22;2630;52.036;8.514;2022-07-29T02:16:43;16.20;99.90
5222;DHT22;2630;52.036;8.514;2022-07-29T02:19:11;16.20;99.90
5222;DHT22;2630;52.036;8.514;2022-07-29T02:21:38;16.20;99.90
5222;DHT22;2630;52.036;8.514;2022-07-29T02:24:05;16.30;99.90
5222;DHT22;2630;52.036;8.514;2022-07-29T02:26:32;16.30;99.90
5222;DHT22;2630;52.036;8.514;2022-07-29T02:28:59;16.20;99.90
5222;DHT22;2630;52.036;8.514;2022-07-29T02:31:32;16.20;99.90
5222;DHT22;2630;52.036;8.514;2022-07-29T02:34:00;16.30;99.90
5222;DHT22;2630;52.036;8.514;2022-07-29T02:36:28;16.30;99.90
5222;DHT22;2630;52.036;8.514;2022-07-29T02:38:56;16.30;99.90
5222;DHT22;2630;52.036;8.514;2022-07-29T02:41:30;16.30;99.90
5222;DHT22;2630;52.036;8.514;2022-07-29T02:44:02;16.30;99.90
5222;DHT22;2630;52.036;8.514;2022-07-29T02:46:31;16.20;99.90
5222;DHT22;2630;52.036;8.514;2022-07-29T02:49:21;16.20;99.90
5222;DHT22;2630;52.036;8.514;2022-07-29T02:52:00;16.20;99.90
5222;DHT22;2630;52.036;8.514;2022-07-29T02:57:11;16.20;99.90
5222;DHT22;2630;52.036;8.514;2022-07-29T02:59:42;16.10;99.90
5222;DHT22;2630;52.036;8.514;2022-07-29T03:02:09;16.00;99.90
5222;DHT22;2630;52.036;8.514;2022-07-29T03:04:37;16.10;99.90
5222;DHT22;2630;52.036;8.514;2022-07-29T03:07:05;16.00;99.90
5222;DHT22;2630;52.036;8.514;2022-07-29T03:09:31;16.00;99.90
5222;DHT22;2630;52.036;8.514;2022-07-29T03:11:58;16.00;99.90
5222;DHT22;2630;52.036;8.514;2022-07-29T03:14:24;16.00;99.90
5222;DHT22;2630;52.036;8.514;2022-07-29T03:16:51;15.90;99.90
5222;DHT22;2630;52.036;8.514;2022-07-29T03:19:18;15.90;99.90
5222;DHT22;2630;52.036;8.514;2022-07-29T03:21:44;15.80;99.90
5222;DHT22;2630;52.036;8.514;2022-07-29T03:24:09;15.80;99.90
5222;DHT22;2630;52.036;8.514;2022-07-29T03:26:35;15.90;99.90
5222;DHT22;2630;52.036;8.514;2022-07-29T03:29:01;15.90;99.90
5222;DHT22;2630;52.036;8.514;2022-07-29T03:31:26;15.80;99.90
5222;DHT22;2630;52.036;8.514;2022-07-29T03:33:52;15.80;99.90
5222;DHT22;2630;52.036;8.514;2022-07-29T03:38:44;15.70;99.90
5222;DHT22;2630;52.036;8.514;2022-07-29T03:41:11;15.70;99.90
5222;DHT22;2630;52.036;8.514;2022-07-29T03:43:41;15.70;99.90
5222;DHT22;2630;52.036;8.514;2022-07-29T03:46:09;15.70;99.90
5222;DHT22;2630;52.036;8.514;2022-07-29T03:48:37;15.70;99.90
5222;DHT22;2630;52.036;8.514;2022-07-29T03:51:04;15.70;99.90
5222;DHT22;2630;52.036;8.514;2022-07-29T03:53:29;15.80;99.90
5222;DHT22;2630;52.036;8.514;2022-07-29T03:55:59;15.60;99.90
5222;DHT22;2630;52.036;8.514;2022-07-29T03:58:27;15.60;99.90
5222;DHT22;2630;52.036;8.514;2022-07-29T04:00:54;15.60;99.90
5222;DHT22;2630;52.036;8.514;2022-07-29T04:03:21;15.70;99.90
5222;DHT22;2630;52.036;8.514;2022-07-29T04:06:05;15.60;99.90
5222;DHT22;2630;52.036;8.514;2022-07-29T04:08:34;15.60;99.90
5222;DHT22;2630;52.036;8.514;2022-07-29T04:11:00;15.60;99.90
5222;DHT22;2630;52.036;8.514;2022-07-29T04:13:26;15.60;99.90
5222;DHT22;2630;52.036;8.514;2022-07-29T04:15:52;15.60;99.90
5222;DHT22;2630;52.036;8.514;2022-07-29T04:18:17;15.50;99.90
5222;DHT22;2630;52.036;8.514;2022-07-29T04:20:43;15.50;99.90
5222;DHT22;2630;52.036;8.514;2022-07-29T04:23:08;15.50;99.90
5222;DHT22;2630;52.036;8.514;2022-07-29T04:25:37;15.40;99.90
5222;DHT22;2630;52.036;8.514;2022-07-29T04:28:04;15.30;99.90
5222;DHT22;2630;52.036;8.514;2022-07-29T04:30:30;15.20;99.90
5222;DHT22;2630;52.036;8.514;2022-07-29T04:32:56;15.20;99.90
5222;DHT22;2630;52.036;8.514;2022-07-29T04:35:21;15.30;99.90
5222;DHT22;2630;52.036;8.514;2022-07-29T04:37:47;15.40;99.90
5222;DHT22;2630;52.036;8.514;2022-07-29T04:40:13;15.40;99.90
5222;DHT22;2630;52.036;8.514;2022-07-29T04:42:39;15.50;99.90
5222;DHT22;2630;52.036;8.514;2022-07-29T04:45:05;15.50;99.90
5222;DHT22;2630;52.036;8.514;2022-07-29T04:47:31;15.60;99.90
5222;DHT22;2630;52.036;8.514;2022-07-29T04:49:56;15.70;99.90
5222;DHT22;2630;52.036;8.514;2022-07-29T04:52:22;15.70;99.90
5222;DHT22;2630;52.036;8.514;2022-07-29T04:54:48;15.90;99.90
5222;DHT22;2630;52.036;8.514;2022-07-29T04:57:14;16.00;99.90
5222;DHT22;2630;52.036;8.514;2022-07-29T04:59:40;16.10;99.90
5222;DHT22;2630;52.036;8.514;2022-07-29T05:02:05;16.20;99.90
5222;DHT22;2630;52.036;8.514;2022-07-29T05:04:31;16.30;99.90
5222;DHT22;2630;52.036;8.514;2022-07-29T05:06:56;16.50;99.90
5222;DHT22;2630;52.036;8.514;2022-07-29T05:09:22;16.50;99.90
5222;DHT22;2630;52.036;8.514;2022-07-29T05:11:48;16.60;99.90
5222;DHT22;2630;52.036;8.514;2022-07-29T05:14:13;16.80;99.90
5222;DHT22;2630;52.036;8.514;2022-07-29T05:19:05;17.20;99.90
5222;DHT22;2630;52.036;8.514;2022-07-29T05:28:49;17.70;99.90
5222;DHT22;2630;52.036;8.514;2022-07-29T05:31:15;17.80;99.90
5222;DHT22;2630;52.036;8.514;2022-07-29T05:33:42;17.90;99.90
5222;DHT22;2630;52.036;8.514;2022-07-29T05:38:35;18.10;99.90
5222;DHT22;2630;52.036;8.514;2022-07-29T05:43:27;18.30;99.90
5222;DHT22;2630;52.036;8.514;2022-07-29T05:45:53;18.40;99.90
5222;DHT22;2630;52.036;8.514;2022-07-29T05:50:45;18.60;99.90
5222;DHT22;2630;52.036;8.514;2022-07-29T05:53:11;18.60;99.90
5222;DHT22;2630;52.036;8.514;2022-07-29T05:55:37;18.70;99.90
5222;DHT22;2630;52.036;8.514;2022-07-29T06:05:22;19.10;99.90
5222;DHT22;2630;52.036;8.514;2022-07-29T06:07:47;19.20;99.90
5222;DHT22;2630;52.036;8.514;2022-07-29T06:15:05;19.10;99.90
5222;DHT22;2630;52.036;8.514;2022-07-29T06:22:23;19.10;99.90
5222;DHT22;2630;52.036;8.514;2022-07-29T06:24:49;19.10;99.90
5222;DHT22;2630;52.036;8.514;2022-07-29T06:27:15;19.10;99.90
5222;DHT22;2630;52.036;8.514;2022-07-29T06:32:07;19.40;99.90
5222;DHT22;2630;52.036;8.514;2022-07-29T06:34:35;19.60;99.90
5222;DHT22;2630;52.036;8.514;2022-07-29T06:37:00;19.70;99.90
5222;DHT22;2630;52.036;8.514;2022-07-29T06:39:30;19.80;99.90
5222;DHT22;2630;52.036;8.514;2022-07-29T06:41:56;19.80;99.90
5222;DHT22;2630;52.036;8.514;2022-07-29T06:44:21;19.80;99.90
5222;DHT22;2630;52.036;8.514;2022-07-29T06:46:47;19.90;99.90
5222;DHT22;2630;52.036;8.514;2022-07-29T06:49:15;19.90;99.90
5222;DHT22;2630;52.036;8.514;2022-07-29T06:51:40;19.90;99.90
5222;DHT22;2630;52.036;8.514;2022-07-29T06:54:06;20.00;99.90
5222;DHT22;2630;52.036;8.514;2022-07-29T06:56:33;20.10;99.90
5222;DHT22;2630;52.036;8.514;2022-07-29T06:59:00;20.20;99.90
5222;DHT22;2630;52.036;8.514;2022-07-29T07:01:26;20.30;99.90
5222;DHT22;2630;52.036;8.514;2022-07-29T07:03:52;20.50;99.90
5222;DHT22;2630;52.036;8.514;2022-07-29T07:08:43;20.80;99.90
5222;DHT22;2630;52.036;8.514;2022-07-29T07:11:09;20.90;99.90
5222;DHT22;2630;52.036;8.514;2022-07-29T07:16:01;21.10;99.90
5222;DHT22;2630;52.036;8.514;2022-07-29T07:18:27;21.30;99.90
5222;DHT22;2630;52.036;8.514;2022-07-29T07:23:19;21.60;99.90
5222;DHT22;2630;52.036;8.514;2022-07-29T07:25:44;21.80;99.90
5222;DHT22;2630;52.036;8.514;2022-07-29T07:28:10;22.00;99.90
5222;DHT22;2630;52.036;8.514;2022-07-29T07:30:36;22.10;99.90
5222;DHT22;2630;52.036;8.514;2022-07-29T07:33:02;22.20;99.90
5222;DHT22;2630;52.036;8.514;2022-07-29T07:35:28;22.40;99.90
5222;DHT22;2630;52.036;8.514;2022-07-29T07:37:55;22.40;99.90
5222;DHT22;2630;52.036;8.514;2022-07-29T07:40:21;22.30;99.90
5222;DHT22;2630;52.036;8.514;2022-07-29T07:47:39;22.20;99.90
5222;DHT22;2630;52.036;8.514;2022-07-29T07:50:06;22.10;99.90
5222;DHT22;2630;52.036;8.514;2022-07-29T07:52:33;22.10;99.90
5222;DHT22;2630;52.036;8.514;2022-07-29T07:55:01;22.10;99.90
5222;DHT22;2630;52.036;8.514;2022-07-29T07:57:27;22.20;99.90
5222;DHT22;2630;52.036;8.514;2022-07-29T07:59:54;22.20;99.90
5222;DHT22;2630;52.036;8.514;2022-07-29T08:02:20;22.30;99.90
5222;DHT22;2630;52.036;8.514;2022-07-29T08:04:46;22.30;99.90
5222;DHT22;2630;52.036;8.514;2022-07-29T08:07:12;22.40;99.90
5222;DHT22;2630;52.036;8.514;2022-07-29T08:09:40;22.60;99.90
5222;DHT22;2630;52.036;8.514;2022-07-29T08:12:06;22.80;99.90
5222;DHT22;2630;52.036;8.514;2022-07-29T08:14:32;23.20;99.90
5222;DHT22;2630;52.036;8.514;2022-07-29T08:19:25;23.60;99.90
5222;DHT22;2630;52.036;8.514;2022-07-29T08:21:51;23.90;99.90
5222;DHT22;2630;52.036;8.514;2022-07-29T08:24:19;23.80;99.90
5222;DHT22;2630;52.036;8.514;2022-07-29T08:27:03;23.80;99.90
5222;DHT22;2630;52.036;8.514;2022-07-29T08:29:29;23.90;99.90
5222;DHT22;2630;52.036;8.514;2022-07-29T08:31:55;24.00;99.90
5222;DHT22;2630;52.036;8.514;2022-07-29T08:34:22;23.90;99.90
5222;DHT22;2630;52.036;8.514;2022-07-29T08:36:48;23.90;99.90
5222;DHT22;2630;52.036;8.514;2022-07-29T08:39:13;23.90;99.90
5222;DHT22;2630;52.036;8.514;2022-07-29T08:41:39;24.10;99.90
5222;DHT22;2630;52.036;8.514;2022-07-29T08:44:05;24.20;99.90
5222;DHT22;2630;52.036;8.514;2022-07-29T08:46:31;24.10;99.90
5222;DHT22;2630;52.036;8.514;2022-07-29T08:51:25;24.00;99.90
5222;DHT22;2630;52.036;8.514;2022-07-29T08:53:53;24.10;99.90
5222;DHT22;2630;52.036;8.514;2022-07-29T08:58:47;24.70;99.90
5222;DHT22;2630;52.036;8.514;2022-07-29T09:01:21;25.00;99.90
5222;DHT22;2630;52.036;8.514;2022-07-29T09:03:47;25.10;99.90
5222;DHT22;2630;52.036;8.514;2022-07-29T09:06:14;25.30;99.90
5222;DHT22;2630;52.036;8.514;2022-07-29T09:08:40;25.60;99.90
5222;DHT22;2630;52.036;8.514;2022-07-29T09:13:33;26.70;99.90
5222;DHT22;2630;52.036;8.514;2022-07-29T09:15:59;28.00;99.90
5222;DHT22;2630;52.036;8.514;2022-07-29T09:18:42;29.90;94.40
5222;DHT22;2630;52.036;8.514;2022-07-29T09:21:11;30.80;92.40
5222;DHT22;2630;52.036;8.514;2022-07-29T09:24:10;32.10;90.10
5222;DHT22;2630;52.036;8.514;2022-07-29T09:26:38;33.20;85.70
5222;DHT22;2630;52.036;8.514;2022-07-29T09:34:06;37.10;66.40
5222;DHT22;2630;52.036;8.514;2022-07-29T09:39:08;39.20;56.60
5222;DHT22;2630;52.036;8.514;2022-07-29T09:41:51;39.70;55.00
5222;DHT22;2630;52.036;8.514;2022-07-29T09:44:20;39.80;50.70
5222;DHT22;2630;52.036;8.514;2022-07-29T09:46:56;39.60;51.10
5222;DHT22;2630;52.036;8.514;2022-07-29T09:49:23;39.30;50.60
5222;DHT22;2630;52.036;8.514;2022-07-29T09:52:06;38.40;50.80
5222;DHT22;2630;52.036;8.514;2022-07-29T09:57:26;35.10;50.90
5222;DHT22;2630;52.036;8.514;2022-07-29T09:59:57;33.30;52.90
5222;DHT22;2630;52.036;8.514;2022-07-29T10:02:28;31.90;56.20
5222;DHT22;2630;52.036;8.514;2022-07-29T10:04:55;31.20;56.30
5222;DHT22;2630;52.036;8.514;2022-07-29T10:07:21;30.40;57.70
5222;DHT22;2630;52.036;8.514;2022-07-29T10:09:53;29.50;62.60
5222;DHT22;2630;52.036;8.514;2022-07-29T10:12:20;28.90;67.00
5222;DHT22;2630;52.036;8.514;2022-07-29T10:14:46;28.40;69.30
5222;DHT22;2630;52.036;8.514;2022-07-29T10:17:11;28.10;67.50
5222;DHT22;2630;52.036;8.514;2022-07-29T10:19:38;28.10;68.20
5222;DHT22;2630;52.036;8.514;2022-07-29T10:22:06;28.30;67.70
5222;DHT22;2630;52.036;8.514;2022-07-29T10:27:02;29.10;70.10
5222;DHT22;2630;52.036;8.514;2022-07-29T10:29:28;29.70;67.70
5222;DHT22;2630;52.036;8.514;2022-07-29T10:40:27;29.50;67.60
5222;DHT22;2630;52.036;8.514;2022-07-29T10:43:22;29.40;68.00
5222;DHT22;2630;52.036;8.514;2022-07-29T10:45:49;29.30;68.40
5222;DHT22;2630;52.036;8.514;2022-07-29T10:48:21;29.40;69.20
5222;DHT22;2630;52.036;8.514;2022-07-29T10:53:52;28.90;72.90
5222;DHT22;2630;52.036;8.514;2022-07-29T11:04:13;28.60;76.00
5222;DHT22;2630;52.036;8.514;2022-07-29T11:11:49;28.20;69.20
5222;DHT22;2630;52.036;8.514;2022-07-29T11:14:15;28.00;72.80
5222;DHT22;2630;52.036;8.514;2022-07-29T11:17:04;27.70;71.80
5222;DHT22;2630;52.036;8.514;2022-07-29T11:19:30;27.50;74.20
5222;DHT22;2630;52.036;8.514;2022-07-29T11:24:24;27.50;72.50
5222;DHT22;2630;52.036;8.514;2022-07-29T11:29:37;27.50;69.90
5222;DHT22;2630;52.036;8.514;2022-07-29T11:32:12;27.50;71.70
5222;DHT22;2630;52.036;8.514;2022-07-29T11:34:41;27.30;73.60
5222;DHT22;2630;52.036;8.514;2022-07-29T11:45:03;27.10;76.60
5222;DHT22;2630;52.036;8.514;2022-07-29T11:47:34;27.20;79.40
5222;DHT22;2630;52.036;8.514;2022-07-29T11:50:03;27.20;78.60
5222;DHT22;2630;52.036;8.514;2022-07-29T11:52:41;27.00;75.00
5222;DHT22;2630;52.036;8.514;2022-07-29T11:55:15;26.80;76.10
5222;DHT22;2630;52.036;8.514;2022-07-29T11:57:57;26.40;76.40
5222;DHT22;2630;52.036;8.514;2022-07-29T12:02:55;26.60;83.60
5222;DHT22;2630;52.036;8.514;2022-07-29T12:08:13;26.90;79.70
5222;DHT22;2630;52.036;8.514;2022-07-29T12:10:40;26.70;81.00
5222;DHT22;2630;52.036;8.514;2022-07-29T12:15:32;26.70;83.90
5222;DHT22;2630;52.036;8.514;2022-07-29T12:17:59;26.90;83.70
5222;DHT22;2630;52.036;8.514;2022-07-29T12:20:34;27.20;84.40
5222;DHT22;2630;52.036;8.514;2022-07-29T12:23:05;27.40;83.30
5222;DHT22;2630;52.036;8.514;2022-07-29T12:25:33;27.60;85.60
5222;DHT22;2630;52.036;8.514;2022-07-29T12:28:01;27.50;84.70
5222;DHT22;2630;52.036;8.514;2022-07-29T12:30:41;27.40;80.10
5222;DHT22;2630;52.036;8.514;2022-07-29T12:35:38;27.30;83.60
5222;DHT22;2630;52.036;8.514;2022-07-29T12:38:04;27.30;81.90
5222;DHT22;2630;52.036;8.514;2022-07-29T12:40:30;27.20;82.20
5222;DHT22;2630;52.036;8.514;2022-07-29T12:43:06;27.20;81.40
5222;DHT22;2630;52.036;8.514;2022-07-29T12:52:54;27.40;81.10
5222;DHT22;2630;52.036;8.514;2022-07-29T12:55:46;27.50;79.20
5222;DHT22;2630;52.036;8.514;2022-07-29T12:58:40;27.70;79.80
5222;DHT22;2630;52.036;8.514;2022-07-29T13:01:08;27.80;79.90
5222;DHT22;2630;52.036;8.514;2022-07-29T13:04:01;27.60;82.40
5222;DHT22;2630;52.036;8.514;2022-07-29T13:06:41;27.30;80.10
5222;DHT22;2630;52.036;8.514;2022-07-29T13:11:37;27.00;83.00
5222;DHT22;2630;52.036;8.514;2022-07-29T13:14:04;27.00;82.90
5222;DHT22;2630;52.036;8.514;2022-07-29T13:16:29;26.90;80.50
5222;DHT22;2630;52.036;8.514;2022-07-29T13:19:09;26.80;83.50
5222;DHT22;2630;52.036;8.514;2022-07-29T13:21:37;26.60;81.80
5222;DHT22;2630;52.036;8.514;2022-07-29T13:24:06;26.50;84.90
5222;DHT22;2630;52.036;8.514;2022-07-29T13:26:33;26.50;87.40
5222;DHT22;2630;52.036;8.514;2022-07-29T13:28:59;26.60;87.30
5222;DHT22;2630;52.036;8.514;2022-07-29T13:31:25;26.70;87.70
5222;DHT22;2630;52.036;8.514;2022-07-29T13:33:50;26.60;85.90
5222;DHT22;2630;52.036;8.514;2022-07-29T13:36:16;26.50;87.60
5222;DHT22;2630;52.036;8.514;2022-07-29T13:38:42;26.40;85.40
5222;DHT22;2630;52.036;8.514;2022-07-29T13:41:07;26.20;86.10
5222;DHT22;2630;52.036;8.514;2022-07-29T13:45:59;25.90;87.50
5222;DHT22;2630;52.036;8.514;2022-07-29T13:48:25;25.70;88.50
5222;DHT22;2630;52.036;8.514;2022-07-29T13:50:50;25.60;91.00
5222;DHT22;2630;52.036;8.514;2022-07-29T13:53:16;25.50;91.00
5222;DHT22;2630;52.036;8.514;2022-07-29T13:55:42;25.50;92.20
5222;DHT22;2630;52.036;8.514;2022-07-29T13:58:07;25.40;93.40
5222;DHT22;2630;52.036;8.514;2022-07-29T14:00:33;25.30;95.90
5222;DHT22;2630;52.036;8.514;2022-07-29T14:02:58;25.40;99.90
5222;DHT22;2630;52.036;8.514;2022-07-29T14:05:24;25.50;99.90
5222;DHT22;2630;52.036;8.514;2022-07-29T14:10:16;25.60;99.90
5222;DHT22;2630;52.036;8.514;2022-07-29T14:12:41;25.60;99.90
5222;DHT22;2630;52.036;8.514;2022-07-29T14:15:07;25.50;99.50
5222;DHT22;2630;52.036;8.514;2022-07-29T14:17:33;25.60;99.40
5222;DHT22;2630;52.036;8.514;2022-07-29T14:19:59;25.70;99.40
5222;DHT22;2630;52.036;8.514;2022-07-29T14:22:25;25.70;99.40
5222;DHT22;2630;52.036;8.514;2022-07-29T14:24:50;25.70;99.90
5222;DHT22;2630;52.036;8.514;2022-07-29T14:29:42;25.90;99.90
5222;DHT22;2630;52.036;8.514;2022-07-29T14:32:09;26.10;99.90
5222;DHT22;2630;52.036;8.514;2022-07-29T14:34:36;26.10;99.90
5222;DHT22;2630;52.036;8.514;2022-07-29T14:37:03;26.30;99.90
5222;DHT22;2630;52.036;8.514;2022-07-29T14:39:31;26.40;99.90
5222;DHT22;2630;52.036;8.514;2022-07-29T14:41:56;26.40;99.90
5222;DHT22;2630;52.036;8.514;2022-07-29T14:44:22;26.40;99.90
5222;DHT22;2630;52.036;8.514;2022-07-29T14:46:48;26.30;99.90
5222;DHT22;2630;52.036;8.514;2022-07-29T14:49:14;26.10;99.80
5222;DHT22;2630;52.036;8.514;2022-07-29T14:51:40;26.10;99.90
5222;DHT22;2630;52.036;8.514;2022-07-29T14:54:06;25.90;99.90
5222;DHT22;2630;52.036;8.514;2022-07-29T14:56:31;25.80;99.90
5222;DHT22;2630;52.036;8.514;2022-07-29T14:58:57;25.60;99.90
5222;DHT22;2630;52.036;8.514;2022-07-29T15:01:23;25.50;99.90
5222;DHT22;2630;52.036;8.514;2022-07-29T15:03:50;25.40;99.90
5222;DHT22;2630;52.036;8.514;2022-07-29T15:06:16;25.30;99.90
5222;DHT22;2630;52.036;8.514;2022-07-29T15:08:41;25.20;99.90
5222;DHT22;2630;52.036;8.514;2022-07-29T15:11:07;25.10;99.90
5222;DHT22;2630;52.036;8.514;2022-07-29T15:13:34;25.10;99.90
5222;DHT22;2630;52.036;8.514;2022-07-29T15:15:59;25.00;99.90
5222;DHT22;2630;52.036;8.514;2022-07-29T15:18:25;24.90;99.90
5222;DHT22;2630;52.036;8.514;2022-07-29T15:20:51;24.80;99.90
5222;DHT22;2630;52.036;8.514;2022-07-29T15:23:16;24.70;99.90
5222;DHT22;2630;52.036;8.514;2022-07-29T15:25:42;24.70;99.90
5222;DHT22;2630;52.036;8.514;2022-07-29T15:28:08;24.60;99.90
5222;DHT22;2630;52.036;8.514;2022-07-29T15:33:06;24.50;99.90
5222;DHT22;2630;52.036;8.514;2022-07-29T15:35:32;24.40;99.90
5222;DHT22;2630;52.036;8.514;2022-07-29T15:37:57;24.30;99.90
5222;DHT22;2630;52.036;8.514;2022-07-29T15:40:23;24.40;99.90
5222;DHT22;2630;52.036;8.514;2022-07-29T15:42:48;24.20;99.90
5222;DHT22;2630;52.036;8.514;2022-07-29T15:47:40;24.20;99.90
5222;DHT22;2630;52.036;8.514;2022-07-29T15:50:06;24.10;99.90
5222;DHT22;2630;52.036;8.514;2022-07-29T15:52:37;24.10;99.90
5222;DHT22;2630;52.036;8.514;2022-07-29T15:55:03;24.10;99.90
5222;DHT22;2630;52.036;8.514;2022-07-29T15:57:28;23.90;99.90
5222;DHT22;2630;52.036;8.514;2022-07-29T15:59:54;23.90;99.90
5222;DHT22;2630;52.036;8.514;2022-07-29T16:02:20;23.90;99.90
5222;DHT22;2630;52.036;8.514;2022-07-29T16:04:46;23.90;99.90
5222;DHT22;2630;52.036;8.514;2022-07-29T16:07:11;23.90;99.90
5222;DHT22;2630;52.036;8.514;2022-07-29T16:09:37;23.90;99.90
5222;DHT22;2630;52.036;8.514;2022-07-29T16:12:03;23.90;99.90
5222;DHT22;2630;52.036;8.514;2022-07-29T16:14:29;23.80;99.90
5222;DHT22;2630;52.036;8.514;2022-07-29T16:19:21;23.70;99.90
5222;DHT22;2630;52.036;8.514;2022-07-29T16:21:46;23.60;99.90
5222;DHT22;2630;52.036;8.514;2022-07-29T16:24:12;23.60;99.90
5222;DHT22;2630;52.036;8.514;2022-07-29T16:29:04;23.40;99.90
5222;DHT22;2630;52.036;8.514;2022-07-29T16:31:30;23.40;99.90
5222;DHT22;2630;52.036;8.514;2022-07-29T16:33:55;23.30;99.90
5222;DHT22;2630;52.036;8.514;2022-07-29T16:36:22;23.20;99.90
5222;DHT22;2630;52.036;8.514;2022-07-29T16:38:47;23.00;99.90
5222;DHT22;2630;52.036;8.514;2022-07-29T16:41:13;22.90;99.90
5222;DHT22;2630;52.036;8.514;2022-07-29T16:43:39;22.80;99.90
5222;DHT22;2630;52.036;8.514;2022-07-29T16:46:08;22.60;99.90
5222;DHT22;2630;52.036;8.514;2022-07-29T16:48:34;22.40;99.90
5222;DHT22;2630;52.036;8.514;2022-07-29T16:51:01;22.40;99.90
5222;DHT22;2630;52.036;8.514;2022-07-29T16:53:26;22.20;99.90
5222;DHT22;2630;52.036;8.514;2022-07-29T16:55:52;22.20;99.90
5222;DHT22;2630;52.036;8.514;2022-07-29T16:58:18;22.20;99.90
5222;DHT22;2630;52.036;8.514;2022-07-29T17:00:46;22.00;99.90
5222;DHT22;2630;52.036;8.514;2022-07-29T17:03:11;21.90;99.90
5222;DHT22;2630;52.036;8.514;2022-07-29T17:05:37;21.80;99.90
5222;DHT22;2630;52.036;8.514;2022-07-29T17:08:03;21.70;99.90
5222;DHT22;2630;52.036;8.514;2022-07-29T17:10:28;21.60;99.90
5222;DHT22;2630;52.036;8.514;2022-07-29T17:12:55;21.60;99.90
5222;DHT22;2630;52.036;8.514;2022-07-29T17:17:46;21.60;99.90
5222;DHT22;2630;52.036;8.514;2022-07-29T17:20:12;21.60;99.90
5222;DHT22;2630;52.036;8.514;2022-07-29T17:22:38;21.60;99.90
5222;DHT22;2630;52.036;8.514;2022-07-29T17:27:31;21.60;99.90
5222;DHT22;2630;52.036;8.514;2022-07-29T17:29:56;21.60;99.90
5222;DHT22;2630;52.036;8.514;2022-07-29T17:32:22;21.60;99.90
5222;DHT22;2630;52.036;8.514;2022-07-29T17:34:48;21.60;99.90
5222;DHT22;2630;52.036;8.514;2022-07-29T17:37:14;21.60;99.90
5222;DHT22;2630;52.036;8.514;2022-07-29T17:39:41;21.60;99.90
5222;DHT22;2630;52.036;8.514;2022-07-29T17:42:08;21.50;99.90
5222;DHT22;2630;52.036;8.514;2022-07-29T17:44:34;21.50;99.90
5222;DHT22;2630;52.036;8.514;2022-07-29T17:46:59;21.40;99.90
5222;DHT22;2630;52.036;8.514;2022-07-29T17:49:25;21.30;99.90
5222;DHT22;2630;52.036;8.514;2022-07-29T17:51:51;21.30;99.90
5222;DHT22;2630;52.036;8.514;2022-07-29T17:54:17;21.30;99.90
5222;DHT22;2630;52.036;8.514;2022-07-29T17:56:43;21.30;99.90
5222;DHT22;2630;52.036;8.514;2022-07-29T17:59:08;21.20;99.90
5222;DHT22;2630;52.036;8.514;2022-07-29T18:01:35;21.10;99.90
5222;DHT22;2630;52.036;8.514;2022-07-29T18:04:01;21.00;99.90
5222;DHT22;2630;52.036;8.514;2022-07-29T18:06:27;20.90;99.90
5222;DHT22;2630;52.036;8.514;2022-07-29T18:08:53;20.90;99.90
5222;DHT22;2630;52.036;8.514;2022-07-29T18:11:20;20.90;99.90
5222;DHT22;2630;52.036;8.514;2022-07-29T18:13:45;20.80;99.90
5222;DHT22;2630;52.036;8.514;2022-07-29T18:18:37;20.80;99.90
5222;DHT22;2630;52.036;8.514;2022-07-29T18:23:29;20.50;99.90
5222;DHT22;2630;52.036;8.514;2022-07-29T18:30:47;20.30;99.90
5222;DHT22;2630;52.036;8.514;2022-07-29T18:33:13;20.20;99.90
5222;DHT22;2630;52.036;8.514;2022-07-29T18:35:44;20.10;99.90
5222;DHT22;2630;52.036;8.514;2022-07-29T18:38:10;20.10;99.90
5222;DHT22;2630;52.036;8.514;2022-07-29T18:40:36;19.90;99.90
5222;DHT22;2630;52.036;8.514;2022-07-29T18:45:30;19.90;99.90
5222;DHT22;2630;52.036;8.514;2022-07-29T18:47:55;19.80;99.90
5222;DHT22;2630;52.036;8.514;2022-07-29T18:50:21;19.70;99.90
5222;DHT22;2630;52.036;8.514;2022-07-29T18:57:41;19.40;99.90
5222;DHT22;2630;52.036;8.514;2022-07-29T19:00:07;19.30;99.90
5222;DHT22;2630;52.036;8.514;2022-07-29T19:14:46;18.80;99.90
5222;DHT22;2630;52.036;8.514;2022-07-29T19:22:03;18.60;99.90
5222;DHT22;2630;52.036;8.514;2022-07-29T19:24:29;18.50;99.90
5222;DHT22;2630;52.036;8.514;2022-07-29T19:26:55;18.50;99.90
5222;DHT22;2630;52.036;8.514;2022-07-29T19:31:49;18.50;99.90
5222;DHT22;2630;52.036;8.514;2022-07-29T19:36:41;18.40;99.90
5222;DHT22;2630;52.036;8.514;2022-07-29T19:39:07;18.40;99.90
5222;DHT22;2630;52.036;8.514;2022-07-29T19:41:33;18.30;99.90
5222;DHT22;2630;52.036;8.514;2022-07-29T19:43:58;18.40;99.90
5222;DHT22;2630;52.036;8.514;2022-07-29T19:48:53;18.50;99.90
5222;DHT22;2630;52.036;8.514;2022-07-29T19:51:19;18.50;99.90